Airfield :
LOGIN :

Register | Disclaimer

   EN    FR    IT 

 










Legend :    VFR   Marginal VFR   IFR   Intensive IFR   Very Intensive IFR
Visi :
Ceiling :
>= 8 km
>= 3000ft
5 to 8 km
1000 to 3000 ft
1500m to 5 km
500 to 1000 ft
800 to 1500m
200 to 500 ft
< 800m
< 200 ft
Symbols :   Thunderstorms  Fog  Heavy snow  Heavy precipitations  Wind > 20 kt
SIGMETs :     Misc.  Thunderstorms  Icing  Turbulence  Mountain Waves  Volcanic Ashes






- Airport Elevation : 218 ft
- IATA code : LBG


LFPB - Paris / Le Bourget

CURRENT METAR :
  • 201230Z AUTO 17011KT CAVOK 11/02 Q0998 BECMG 19015G25KT

EXPIRED METARs :
  • 201200Z AUTO 17011KT CAVOK 10/01 Q0999 BECMG 19015G25KT
  • 201130Z AUTO 16009KT CAVOK 09/01 Q0999 BECMG 19015G25KT
  • 201100Z AUTO 16011KT CAVOK 09/01 Q1000 BECMG 19015G25KT
  • 201030Z AUTO 16010KT CAVOK 08/01 Q1001 BECMG 19015G25KT
  • 201000Z AUTO 16009KT CAVOK 08/01 Q1001 BECMG 19015G25KT

TAF TAF LFPB
Valid from the 20 at 12:00 until the 21 at 12:00 UTC


201100Z 2012/2112 19015G25KT CAVOK
BECMG 2021/2023 20020G40KT
PROB40
TEMPO 2102/2104 20020G50KT 4000 RA BKN014
BECMG 2105/2107 22015G25KT
ATIS : +33 1 48 62 43 92



MET'MAP, your aeronautical weather chart ! - Copyright ORBIFLY December 2007 - Disclaimer

ORBIFLY MET'MAP TEAM :

Programming & Development : Alexandra Zaïnal
Concept & original design : Baudouin d'Aumeries
Assistance for programming : Marc-Olivier Méhu
Technical & hardware support : Manuel Goepfert

Contact : metmap@orbifly.com




SOURCES & CREDITS :

   NOAA